SYD weather

Sydney Kingsford Smith International Airport
Sydney, New South Wales, Australia

Public forecast

Using degrees Celsius for public forecast. Weather courtesy of forecast.io.

METAR (pilot weather report)

Retrieved 2018/01/18 08:00 UTC (12 minutes ago):

YSSY 180800Z 07015KT CAVOK 24/14 Q1015 NOSIG

TAF (pilot weather forecast)

Retrieved 2018/01/18 06:00 UTC (2 hours ago):

TAF YSSY 180522Z 1806/1912 07015KT CAVOK FM180900 04010KT CAVOK FM181200 29008KT CAVOK FM190000 13008KT CAVOK FM190200 07015KT CAVOK FM190900 04010KT CAVOK